Time;durP1;ratioP1;P1;durP2;ratioP2;P2;SDS_P1;SDS_P2;PMS_P1;PMS_P2;Temp;Humidity;BMP_temperature;BMP_pressure;BME280_temperature;BME280_humidity;BME280_pressure;Samples;Min_cycle;Max_cycle;Signal;HPM_P1;HPM_P2
2023/09/10 00:01:10;;;;;;;;;;;;;;;25.87;47.91;101326.84;5074475;28;19924;-57
2023/09/10 00:03:38;;;;;;;;;;;;;;;25.88;47.61;101325.81;5074277;28;19925;-57
2023/09/10 00:06:06;;;;;;;;;;;;;;;25.87;47.63;101318.69;5072980;28;19924;-56
2023/09/10 00:08:34;;;;;;;;;;;;;;;25.88;47.67;101323.09;5073569;28;19936;-55
2023/09/10 00:11:01;;;;;;;;;;;;;;;25.87;47.78;101322.25;5074400;28;20378;-55
2023/09/10 00:13:29;;;;;;;;;;;;;;;25.88;47.74;101323.09;5073817;28;19931;-55
2023/09/10 00:15:56;;;;;;;;;;;;;;;25.88;47.61;101321.22;5073806;28;19947;-55
2023/09/10 00:18:23;;;;;;;;;;;;;;;25.89;47.87;101316.69;5074075;28;19925;-55
2023/09/10 00:20:52;;;;;;;;;;;;;;;25.90;47.66;101321.09;5073598;28;19932;-55
2023/09/10 00:23:19;;;;;;;;;;;;;;;25.89;47.72;101316.69;5074285;28;19924;-54
2023/09/10 00:25:47;;;;;;;;;;;;;;;25.89;47.80;101319.41;5073726;28;19932;-55
2023/09/10 00:28:15;;;;;;;;;;;;;;;25.89;47.62;101313.97;5073702;28;19933;-55
2023/09/10 00:30:42;;;;;;;;;;;;;;;25.89;47.70;101324.81;5073884;28;19924;-54
2023/09/10 00:33:09;;;;;;;;;;;;;;;25.89;47.67;101324.81;5073690;28;19924;-55
2023/09/10 00:35:37;;;;;;;;;;;;;;;25.90;47.69;101321.09;5105964;28;19924;-55
2023/09/10 00:38:04;;;;;;;;;;;;;;;25.90;47.85;101326.50;5074102;28;20314;-56
2023/09/10 00:40:31;;;;;;;;;;;;;;;25.90;47.79;101331.94;5071991;28;19924;-55
2023/09/10 00:42:58;;;;;;;;;;;;;;;25.90;47.75;101326.50;5073371;28;19924;-55
2023/09/10 00:45:25;;;;;;;;;;;;;;;25.91;47.80;101321.94;5073879;28;19935;-55
2023/09/10 00:47:53;;;;;;;;;;;;;;;25.89;47.67;101325.66;5072135;28;19939;-56
2023/09/10 00:50:20;;;;;;;;;;;;;;;25.91;47.84;101333.63;5071934;28;19979;-56
2023/09/10 00:52:52;;;;;;;;;;;;;;;25.89;47.69;101322.97;5054666;28;19924;-55
2023/09/10 00:55:21;;;;;;;;;;;;;;;25.90;47.68;101329.22;5064861;28;19924;-55
2023/09/10 00:57:48;;;;;;;;;;;;;;;25.90;47.70;101326.50;5054601;28;19932;-57
2023/09/10 01:00:16;;;;;;;;;;;;;;;25.91;47.63;101338.22;5072041;28;19939;-55
2023/09/10 01:02:44;;;;;;;;;;;;;;;25.89;47.83;101339.22;5072139;28;19932;-54
2023/09/10 01:05:11;;;;;;;;;;;;;;;25.91;47.73;101332.78;5073214;28;19925;-55
2023/09/10 01:07:39;;;;;;;;;;;;;;;25.91;47.65;101336.34;5073508;28;19924;-56
2023/09/10 01:10:07;;;;;;;;;;;;;;;25.91;47.74;101327.34;5073212;28;19924;-56
2023/09/10 01:12:37;;;;;;;;;;;;;;;25.91;47.63;101325.50;5105569;28;20384;-56
2023/09/10 01:15:27;;;;;;;;;;;;;;;25.90;47.66;101323.81;5072265;28;19924;-56
2023/09/10 01:17:57;;;;;;;;;;;;;;;25.91;47.69;101325.50;5062158;28;20306;-57
2023/09/10 01:20:28;;;;;;;;;;;;;;;25.91;47.82;101327.34;5073096;28;19924;-56
2023/09/10 01:23:05;;;;;;;;;;;;;;;25.91;47.63;101327.34;5071779;28;19932;-55
2023/09/10 01:25:33;;;;;;;;;;;;;;;25.91;47.60;101324.66;5072361;28;19925;-56
2023/09/10 01:28:03;;;;;;;;;;;;;;;25.92;47.58;101315.50;5071859;28;19924;-56
2023/09/10 01:30:31;;;;;;;;;;;;;;;25.89;47.61;101320.25;5071751;28;19924;-56
2023/09/10 01:33:24;;;;;;;;;;;;;;;25.91;47.58;101319.22;5073544;28;19932;-56
2023/09/10 01:35:51;;;;;;;;;;;;;;;25.90;47.54;101315.66;5071471;28;19925;-57
2023/09/10 01:38:41;;;;;;;;;;;;;;;25.90;47.52;101315.66;5073168;28;20037;-56
2023/09/10 01:41:18;;;;;;;;;;;;;;;25.89;47.46;101313.97;5073460;28;19939;-57
2023/09/10 01:43:46;;;;;;;;;;;;;;;25.90;47.61;101318.38;5072007;28;19931;-57
2023/09/10 01:46:14;;;;;;;;;;;;;;;25.90;47.54;101321.09;5071455;28;19936;-56
2023/09/10 01:48:41;;;;;;;;;;;;;;;25.90;47.63;101318.38;5072736;28;19931;-55
2023/09/10 01:51:09;;;;;;;;;;;;;;;25.90;47.54;101312.94;5072992;28;19932;-55
2023/09/10 01:53:36;;;;;;;;;;;;;;;25.89;47.43;101320.25;5055199;28;20271;-55
2023/09/10 01:56:03;;;;;;;;;;;;;;;25.89;47.47;101312.09;5061783;28;19947;-55
2023/09/10 01:58:30;;;;;;;;;;;;;;;25.91;47.38;101319.22;5055202;28;19924;-55
2023/09/10 02:00:57;;;;;;;;;;;;;;;25.90;47.63;101312.94;5071574;28;19931;-55
2023/09/10 02:03:25;;;;;;;;;;;;;;;25.89;47.39;101324.81;5071186;28;19925;-56
2023/09/10 02:05:52;;;;;;;;;;;;;;;25.88;47.53;101317.66;5072450;28;19931;-55
2023/09/10 02:08:19;;;;;;;;;;;;;;;25.89;47.52;101324.81;5071795;28;19931;-56
2023/09/10 02:10:46;;;;;;;;;;;;;;;25.89;47.39;101327.53;5075004;28;19928;-56
2023/09/10 02:13:13;;;;;;;;;;;;;;;25.88;47.28;101329.38;5076486;28;19925;-57
2023/09/10 02:15:40;;;;;;;;;;;;;;;25.88;47.26;101326.66;5076155;28;19925;-56
2023/09/10 02:18:08;;;;;;;;;;;;;;;25.88;47.19;101325.81;5076696;28;19926;-56
2023/09/10 02:20:39;;;;;;;;;;;;;;;25.88;47.07;101323.09;5075958;28;19924;-56
2023/09/10 02:23:06;;;;;;;;;;;;;;;25.88;47.16;101329.38;5074720;28;19928;-56
2023/09/10 02:25:33;;;;;;;;;;;;;;;25.87;47.20;101322.25;5076437;28;19924;-55
2023/09/10 02:28:01;;;;;;;;;;;;;;;25.87;47.03;101333.09;5076324;28;20298;-56
2023/09/10 02:30:28;;;;;;;;;;;;;;;25.87;47.08;101332.25;5076106;28;20383;-56
2023/09/10 02:32:55;;;;;;;;;;;;;;;25.87;47.17;101335.81;5074421;28;20409;-57
2023/09/10 02:35:23;;;;;;;;;;;;;;;25.87;47.09;101337.69;5075917;28;19931;-56
2023/09/10 02:37:50;;;;;;;;;;;;;;;25.87;47.22;101349.38;5074308;28;19924;-56
2023/09/10 02:40:17;;;;;;;;;;;;;;;25.87;47.12;101341.25;5074416;28;19931;-56
2023/09/10 02:42:44;;;;;;;;;;;;;;;25.88;47.10;101347.50;5074301;28;19947;-56
2023/09/10 02:45:12;;;;;;;;;;;;;;;25.87;47.16;101337.69;5075657;28;19924;-57
2023/09/10 02:47:39;;;;;;;;;;;;;;;25.87;47.42;101337.69;5074733;28;19931;-56
2023/09/10 02:50:07;;;;;;;;;;;;;;;25.86;47.16;101339.56;5075883;28;19929;-56
2023/09/10 02:52:34;;;;;;;;;;;;;;;25.87;47.29;101334.97;5070151;28;20302;-56
2023/09/10 02:55:01;;;;;;;;;;;;;;;25.86;47.09;101334.13;5057310;28;20306;-57
2023/09/10 02:57:28;;;;;;;;;;;;;;;25.87;47.29;101334.97;5100749;28;19924;-56
2023/09/10 02:59:56;;;;;;;;;;;;;;;25.86;46.96;101328.69;5075260;28;19925;-54
2023/09/10 03:02:23;;;;;;;;;;;;;;;25.87;47.06;101330.41;5073475;28;19928;-55
2023/09/10 03:04:50;;;;;;;;;;;;;;;25.86;47.18;101327.84;5075668;28;19931;-55
2023/09/10 03:07:17;;;;;;;;;;;;;;;25.86;47.23;101330.56;5073855;28;19935;-55
2023/09/10 03:09:44;;;;;;;;;;;;;;;25.86;47.22;101327.84;5073721;28;19931;-56
2023/09/10 03:12:26;;;;;;;;;;;;;;;25.85;47.27;101335.16;5074338;28;19924;-56
2023/09/10 03:14:55;;;;;;;;;;;;;;;25.86;47.31;101330.56;5073833;28;19925;-56
2023/09/10 03:17:24;;;;;;;;;;;;;;;25.86;47.31;101331.41;5075268;28;19936;-55
2023/09/10 03:19:51;;;;;;;;;;;;;;;25.85;47.27;101331.59;5075339;28;19935;-55
2023/09/10 03:22:19;;;;;;;;;;;;;;;25.86;47.47;101336.00;5060360;28;19924;-55
2023/09/10 03:24:46;;;;;;;;;;;;;;;25.85;47.22;101331.59;5073522;28;19931;-55
2023/09/10 03:27:13;;;;;;;;;;;;;;;25.86;47.44;101330.56;5073208;28;19931;-55
2023/09/10 03:29:41;;;;;;;;;;;;;;;25.86;47.33;101336.00;5106996;28;19928;-56
2023/09/10 03:32:09;;;;;;;;;;;;;;;25.86;47.30;101336.00;5074590;28;19931;-56
2023/09/10 03:34:38;;;;;;;;;;;;;;;25.87;47.49;101341.25;5073748;28;19943;-56
2023/09/10 03:37:06;;;;;;;;;;;;;;;25.86;47.63;101336.84;5074529;28;19924;-56
2023/09/10 03:39:34;;;;;;;;;;;;;;;25.87;47.46;101332.25;5073264;28;19925;-55
2023/09/10 03:42:02;;;;;;;;;;;;;;;25.88;47.54;101333.94;5073524;28;19925;-55
2023/09/10 03:44:30;;;;;;;;;;;;;;;25.86;47.58;101330.56;5065988;28;19931;-56
2023/09/10 03:46:57;;;;;;;;;;;;;;;25.87;47.70;101332.25;5073018;28;19932;-56
2023/09/10 03:49:25;;;;;;;;;;;;;;;25.86;47.83;101336.84;5073185;28;20298;-55
2023/09/10 03:51:53;;;;;;;;;;;;;;;25.86;47.58;101326.00;5060262;28;20379;-55
2023/09/10 03:54:20;;;;;;;;;;;;;;;25.87;47.56;101321.41;5065469;28;19932;-55
2023/09/10 03:56:47;;;;;;;;;;;;;;;25.86;47.65;101326.00;5057735;28;20433;-55
2023/09/10 03:59:15;;;;;;;;;;;;;;;25.85;47.59;101318.88;5073764;28;20379;-56
2023/09/10 04:01:42;;;;;;;;;;;;;;;25.86;47.66;101319.72;5074443;28;19947;-56
2023/09/10 04:04:09;;;;;;;;;;;;;;;25.87;47.44;101315.97;5072716;28;19932;-56
2023/09/10 04:06:36;;;;;;;;;;;;;;;25.86;47.49;101317.00;5072401;28;20417;-56
2023/09/10 04:09:04;;;;;;;;;;;;;;;25.85;47.41;101305.31;5073925;28;20279;-56
2023/09/10 04:11:31;;;;;;;;;;;;;;;25.84;47.34;101309.00;5072485;28;19924;-56
2023/09/10 04:13:58;;;;;;;;;;;;;;;25.85;47.09;101309.88;5072988;28;20370;-57
2023/09/10 04:16:26;;;;;;;;;;;;;;;25.85;47.01;101323.44;5074208;28;19932;-57
2023/09/10 04:18:53;;;;;;;;;;;;;;;25.84;46.97;101313.59;5072727;28;19924;-55
2023/09/10 04:21:21;;;;;;;;;;;;;;;25.84;46.81;101316.31;5073719;28;19924;-55
2023/09/10 04:23:48;;;;;;;;;;;;;;;25.83;47.12;101320.88;5074238;28;19936;-55
2023/09/10 04:26:15;;;;;;;;;;;;;;;25.83;47.13;101312.75;5072324;28;19932;-55
2023/09/10 04:28:43;;;;;;;;;;;;;;;25.83;46.90;101315.47;5071996;28;19931;-55
2023/09/10 04:31:16;;;;;;;;;;;;;;;25.83;46.90;101326.31;5072145;28;19925;-55
2023/09/10 04:33:44;;;;;;;;;;;;;;;25.84;46.86;101324.44;5071818;28;19932;-55
2023/09/10 04:36:13;;;;;;;;;;;;;;;25.83;47.04;101320.03;5072337;28;19924;-56
2023/09/10 04:38:41;;;;;;;;;;;;;;;25.82;46.95;101324.63;5072514;28;19925;-56
2023/09/10 04:41:08;;;;;;;;;;;;;;;25.83;46.94;101330.88;5073584;28;19928;-56
2023/09/10 04:43:36;;;;;;;;;;;;;;;25.82;47.00;101337.34;5072331;28;19932;-57
2023/09/10 04:46:03;;;;;;;;;;;;;;;25.83;46.84;101325.47;5073743;28;19925;-57
2023/09/10 04:48:30;;;;;;;;;;;;;;;25.82;46.82;101329.19;5072955;28;19931;-55
2023/09/10 04:50:58;;;;;;;;;;;;;;;25.83;46.86;101330.88;5073626;28;19925;-56
2023/09/10 04:53:25;;;;;;;;;;;;;;;25.81;46.79;101322.91;5072408;28;19925;-55
2023/09/10 04:55:53;;;;;;;;;;;;;;;25.81;46.53;101325.63;5058697;28;20394;-54
2023/09/10 04:58:23;;;;;;;;;;;;;;;25.81;46.69;101328.34;5058581;28;19924;-56
2023/09/10 05:00:50;;;;;;;;;;;;;;;25.81;46.57;101333.78;5105734;28;19924;-56
2023/09/10 05:03:20;;;;;;;;;;;;;;;25.82;46.70;101330.03;5071673;28;19955;-56
2023/09/10 05:05:55;;;;;;;;;;;;;;;25.82;46.67;101342.75;5071884;28;19932;-56
2023/09/10 05:08:22;;;;;;;;;;;;;;;25.82;46.63;101343.59;5071196;28;19932;-55
2023/09/10 05:10:49;;;;;;;;;;;;;;;25.81;46.60;101350.03;5072090;28;19929;-55
2023/09/10 05:13:16;;;;;;;;;;;;;;;25.81;46.74;101354.63;5073129;28;19924;-55
2023/09/10 05:15:48;;;;;;;;;;;;;;;25.82;46.51;101356.31;5072199;28;19932;-55
2023/09/10 05:18:16;;;;;;;;;;;;;;;25.81;46.65;101355.47;5071383;28;19925;-55
2023/09/10 05:20:43;;;;;;;;;;;;;;;25.81;46.72;101360.03;5072116;28;19924;-55
2023/09/10 05:23:10;;;;;;;;;;;;;;;25.81;46.58;101354.63;5072029;28;19925;-55
2023/09/10 05:25:38;;;;;;;;;;;;;;;25.81;46.74;101360.03;5071648;28;19925;-55
2023/09/10 05:28:05;;;;;;;;;;;;;;;25.81;46.81;101360.03;5072220;28;19932;-56
2023/09/10 05:30:36;;;;;;;;;;;;;;;25.81;46.59;101362.75;5105522;28;19924;-57
2023/09/10 05:33:03;;;;;;;;;;;;;;;25.81;46.72;101365.47;5071580;28;19925;-56
2023/09/10 05:35:31;;;;;;;;;;;;;;;25.80;46.77;101363.75;5071846;28;19924;-56
2023/09/10 05:37:58;;;;;;;;;;;;;;;25.79;46.42;101365.63;5071363;28;19928;-56
2023/09/10 05:40:25;;;;;;;;;;;;;;;25.80;46.61;101361.88;5071686;28;19924;-56
2023/09/10 05:42:53;;;;;;;;;;;;;;;25.80;46.63;101358.31;5071763;28;20309;-56
2023/09/10 05:45:21;;;;;;;;;;;;;;;25.80;46.51;101363.75;5075491;28;19924;-57
2023/09/10 05:47:48;;;;;;;;;;;;;;;25.80;46.67;101364.59;5075225;28;19936;-56
2023/09/10 05:50:15;;;;;;;;;;;;;;;25.80;46.59;101355.59;5075792;28;19925;-56
2023/09/10 05:52:44;;;;;;;;;;;;;;;25.79;46.73;101357.47;5075250;28;19932;-56
2023/09/10 05:55:11;;;;;;;;;;;;;;;25.80;46.77;101356.47;5076559;28;19931;-56
2023/09/10 05:57:38;;;;;;;;;;;;;;;25.80;46.67;101358.31;5058970;28;19928;-55
2023/09/10 06:00:06;;;;;;;;;;;;;;;25.79;46.73;101357.47;5076554;28;19924;-55
2023/09/10 06:02:41;;;;;;;;;;;;;;;25.80;46.81;101358.31;5083649;28;19932;-55
2023/09/10 06:05:09;;;;;;;;;;;;;;;25.81;46.80;101354.63;5074887;28;19999;-56
2023/09/10 06:07:37;;;;;;;;;;;;;;;25.79;46.79;101352.06;5074746;28;20330;-56
2023/09/10 06:10:08;;;;;;;;;;;;;;;25.81;46.90;101357.34;5076577;28;19948;-56
2023/09/10 06:12:37;;;;;;;;;;;;;;;25.80;46.77;101359.16;5075230;28;19931;-56
2023/09/10 06:15:05;;;;;;;;;;;;;;;25.81;46.93;101360.03;5075533;28;19932;-56
2023/09/10 06:17:33;;;;;;;;;;;;;;;25.82;46.84;101364.44;5076372;28;19928;-56
2023/09/10 06:20:00;;;;;;;;;;;;;;;25.82;47.04;101367.16;5076482;28;19936;-57
2023/09/10 06:22:28;;;;;;;;;;;;;;;25.83;46.97;101363.44;5075190;28;20267;-57
2023/09/10 06:24:55;;;;;;;;;;;;;;;25.83;46.86;101366.16;5076011;28;20270;-56
2023/09/10 06:27:22;;;;;;;;;;;;;;;25.83;46.99;101364.28;5075189;28;19932;-57
2023/09/10 06:29:50;;;;;;;;;;;;;;;25.84;47.02;101359.69;5074653;28;19925;-57
2023/09/10 06:32:17;;;;;;;;;;;;;;;25.85;46.96;101361.41;5074740;28;19924;-58
2023/09/10 06:34:44;;;;;;;;;;;;;;;25.84;47.09;101365.13;5076141;28;19931;-59
2023/09/10 06:37:12;;;;;;;;;;;;;;;25.81;46.51;101358.19;5074289;28;19924;-59
2023/09/10 06:39:40;;;;;;;;;;;;;;;25.81;46.18;101370.91;5074777;28;19932;-58
2023/09/10 06:42:09;;;;;;;;;;;;;;;25.77;46.19;101366.78;5074361;28;19951;-58
2023/09/10 06:44:43;;;;;;;;;;;;;;;25.74;45.91;101359.81;5071839;28;19928;-58
2023/09/10 06:47:11;;;;;;;;;;;;;;;25.73;45.89;101358.09;5075676;28;19948;-59
2023/09/10 06:49:38;;;;;;;;;;;;;;;25.70;45.57;101361.13;5075853;28;19931;-59
2023/09/10 06:52:09;;;;;;;;;;;;;;;25.69;45.56;101364.88;5076065;28;19925;-59
2023/09/10 06:54:37;;;;;;;;;;;;;;;25.70;45.91;101368.44;5075249;28;19924;-59
2023/09/10 06:57:04;;;;;;;;;;;;;;;25.69;45.84;101370.28;5068602;28;19947;-58
2023/09/10 06:59:31;;;;;;;;;;;;;;;25.67;45.83;101374.16;5058055;28;20383;-59
2023/09/10 07:01:58;;;;;;;;;;;;;;;25.63;46.05;101374.47;5073469;28;19925;-59
2023/09/10 07:04:26;;;;;;;;;;;;;;;25.61;46.12;101378.38;5075266;28;19924;-58
2023/09/10 07:06:54;;;;;;;;;;;;;;;25.60;46.03;101377.53;5075791;28;19932;-58
2023/09/10 07:09:22;;;;;;;;;;;;;;;25.59;46.18;101374.97;5074748;28;19929;-59
2023/09/10 07:11:50;;;;;;;;;;;;;;;25.58;46.22;101373.28;5075123;28;19925;-58
2023/09/10 07:14:17;;;;;;;;;;;;;;;25.56;46.52;101373.44;5075283;28;19924;-58
2023/09/10 07:16:45;;;;;;;;;;;;;;;25.55;46.67;101385.28;5075644;28;19931;-59
2023/09/10 07:19:13;;;;;;;;;;;;;;;25.54;46.90;101383.56;5075302;28;19932;-59
2023/09/10 07:21:40;;;;;;;;;;;;;;;25.54;47.21;101383.56;5074981;28;20256;-59
2023/09/10 07:24:09;;;;;;;;;;;;;;;25.54;47.25;101382.72;5074613;28;19925;-61
2023/09/10 07:26:36;;;;;;;;;;;;;;;25.55;46.96;101384.41;5075261;28;19932;-58
2023/09/10 07:29:07;;;;;;;;;;;;;;;25.55;47.37;101387.97;5074961;28;20370;-58
2023/09/10 07:31:34;;;;;;;;;;;;;;;25.54;47.50;101386.28;5074070;28;19925;-58
2023/09/10 07:34:02;;;;;;;;;;;;;;;25.52;47.12;101382.91;5074678;28;19931;-59
2023/09/10 07:36:29;;;;;;;;;;;;;;;25.51;47.12;101388.47;5075330;28;19924;-58
2023/09/10 07:38:56;;;;;;;;;;;;;;;25.50;47.13;101392.19;5074615;28;19924;-55
2023/09/10 07:41:24;;;;;;;;;;;;;;;25.50;47.07;101389.47;5074853;28;19924;-56
2023/09/10 07:43:51;;;;;;;;;;;;;;;25.49;47.03;101383.22;5074735;28;19939;-55
2023/09/10 07:46:18;;;;;;;;;;;;;;;25.51;46.90;101392.03;5075003;28;19939;-56
2023/09/10 07:48:45;;;;;;;;;;;;;;;25.52;46.86;101388.31;5074634;28;19947;-55
2023/09/10 07:51:12;;;;;;;;;;;;;;;25.53;46.75;101394.59;5074607;28;19932;-55
2023/09/10 07:53:39;;;;;;;;;;;;;;;25.53;46.66;101389.16;5074805;28;19924;-56
2023/09/10 07:56:07;;;;;;;;;;;;;;;25.55;46.51;101389.84;5074573;28;19925;-56
2023/09/10 07:58:34;;;;;;;;;;;;;;;25.55;46.31;101401.53;5065087;28;19932;-56
2023/09/10 08:01:01;;;;;;;;;;;;;;;25.54;46.25;101396.28;5058605;28;19952;-56
2023/09/10 08:03:28;;;;;;;;;;;;;;;25.54;46.21;101397.13;5074062;28;19924;-56
2023/09/10 08:05:55;;;;;;;;;;;;;;;25.53;46.27;101394.59;5073927;28;19924;-55
2023/09/10 08:08:23;;;;;;;;;;;;;;;25.53;46.37;101391.88;5074236;28;19932;-56
2023/09/10 08:10:50;;;;;;;;;;;;;;;25.52;46.30;101395.56;5072779;28;19924;-56
2023/09/10 08:13:17;;;;;;;;;;;;;;;25.53;46.38;101394.59;5073816;28;19932;-55
2023/09/10 08:15:44;;;;;;;;;;;;;;;25.53;46.59;101392.72;5074398;28;19924;-55
2023/09/10 08:18:12;;;;;;;;;;;;;;;25.55;46.64;101406.13;5074054;28;19928;-55
2023/09/10 08:20:40;;;;;;;;;;;;;;;25.55;46.61;101396.13;5073913;28;19924;-56
2023/09/10 08:23:08;;;;;;;;;;;;;;;25.58;46.59;101408.50;5073970;28;20291;-57
2023/09/10 08:25:35;;;;;;;;;;;;;;;25.59;46.68;101399.34;5073781;28;20279;-57
2023/09/10 08:28:02;;;;;;;;;;;;;;;25.60;46.39;101406.47;5072838;28;19947;-57
2023/09/10 08:30:30;;;;;;;;;;;;;;;25.59;46.66;101399.34;5074004;28;19932;-58
2023/09/10 08:32:57;;;;;;;;;;;;;;;25.64;46.48;101400.59;5073904;28;19932;-58
2023/09/10 08:35:28;;;;;;;;;;;;;;;25.68;46.41;101402.97;5073590;28;19930;-58
2023/09/10 08:37:55;;;;;;;;;;;;;;;25.70;46.63;101403.69;5073958;28;19924;-57
2023/09/10 08:40:23;;;;;;;;;;;;;;;25.71;47.05;101402.66;5073601;28;19932;-57
2023/09/10 08:42:53;;;;;;;;;;;;;;;25.71;47.15;101398.09;5073684;28;19928;-54
2023/09/10 08:45:21;;;;;;;;;;;;;;;25.77;47.26;101402.03;5073938;28;19924;-59
2023/09/10 08:47:53;;;;;;;;;;;;;;;25.80;47.51;101396.28;5073812;28;20397;-60
2023/09/10 08:50:22;;;;;;;;;;;;;;;25.80;47.36;101399.84;5073375;28;19924;-62
2023/09/10 08:52:49;;;;;;;;;;;;;;;25.81;47.29;101406.16;5072998;28;19931;-60
2023/09/10 08:55:16;;;;;;;;;;;;;;;25.79;46.99;101402.75;5073683;28;19924;-62
2023/09/10 08:57:45;;;;;;;;;;;;;;;25.76;46.84;101397.59;5071733;28;19924;-62
2023/09/10 09:00:12;;;;;;;;;;;;;;;25.75;46.81;101398.63;5060268;28;19935;-61
2023/09/10 09:02:44;;;;;;;;;;;;;;;25.76;46.91;101400.31;5061432;28;20043;-61
2023/09/10 09:05:12;;;;;;;;;;;;;;;25.79;47.08;101397.31;5073515;28;19935;-61
2023/09/10 09:07:42;;;;;;;;;;;;;;;25.82;47.31;101397.00;5073620;28;19992;-61
2023/09/10 09:10:12;;;;;;;;;;;;;;;25.86;47.41;101395.66;5073851;28;19924;-61
2023/09/10 09:12:40;;;;;;;;;;;;;;;25.86;47.39;101396.50;5062423;28;19925;-61
2023/09/10 09:15:08;;;;;;;;;;;;;;;25.88;47.54;101399.91;5073021;28;19932;-61
2023/09/10 09:17:36;;;;;;;;;;;;;;;25.88;47.29;101394.47;5073261;28;19924;-61
2023/09/10 09:20:08;;;;;;;;;;;;;;;25.86;47.31;101393.81;5076945;28;20402;-62
2023/09/10 09:22:39;;;;;;;;;;;;;;;25.87;47.26;101389.22;5077494;28;19931;-60
2023/09/10 09:25:07;;;;;;;;;;;;;;;25.85;47.21;101392.09;5077062;28;19932;-64
2023/09/10 09:27:35;;;;;;;;;;;;;;;25.86;47.29;101395.66;5077517;28;19924;-61
2023/09/10 09:30:06;;;;;;;;;;;;;;;25.85;47.22;101393.97;5077089;28;19928;-60
2023/09/10 09:32:35;;;;;;;;;;;;;;;25.85;47.19;101393.97;5077542;28;19931;-60
2023/09/10 09:35:05;;;;;;;;;;;;;;;25.85;47.08;101397.53;5077337;28;19936;-60
2023/09/10 09:37:32;;;;;;;;;;;;;;;25.86;47.27;101388.38;5076862;28;19935;-61
2023/09/10 09:40:00;;;;;;;;;;;;;;;25.88;47.43;101393.63;5076976;28;19925;-58
2023/09/10 09:42:27;;;;;;;;;;;;;;;25.89;47.25;101392.63;5076827;28;19932;-58
2023/09/10 09:44:54;;;;;;;;;;;;;;;25.89;47.18;101384.50;5076738;28;19931;-58
2023/09/10 09:47:22;;;;;;;;;;;;;;;25.89;47.29;101385.34;5076532;28;19932;-58
2023/09/10 09:49:49;;;;;;;;;;;;;;;25.89;47.18;101381.78;5076910;28;19925;-61
2023/09/10 09:52:18;;;;;;;;;;;;;;;25.89;47.39;101381.78;5076152;28;19925;-61
2023/09/10 09:54:46;;;;;;;;;;;;;;;25.89;47.43;101379.06;5076679;28;19932;-61
2023/09/10 09:57:13;;;;;;;;;;;;;;;25.89;47.36;101382.63;5076666;28;19924;-61
2023/09/10 09:59:41;;;;;;;;;;;;;;;25.89;47.23;101376.38;5073383;28;19925;-60
2023/09/10 10:02:13;;;;;;;;;;;;;;;25.90;47.21;101378.06;5056619;28;19931;-61
2023/09/10 10:04:43;;;;;;;;;;;;;;;25.91;47.45;101373.47;5073348;28;20302;-61
2023/09/10 10:07:14;;;;;;;;;;;;;;;25.89;47.32;101376.38;5076182;28;19924;-61
2023/09/10 10:09:44;;;;;;;;;;;;;;;25.90;47.41;101380.75;5065869;28;19939;-61
2023/09/10 10:12:12;;;;;;;;;;;;;;;25.91;47.33;101373.47;5075347;28;19928;-61
2023/09/10 10:14:39;;;;;;;;;;;;;;;25.91;47.21;101370.75;5076074;28;19930;-61
2023/09/10 10:17:07;;;;;;;;;;;;;;;25.91;47.24;101363.47;5076131;28;20310;-61
2023/09/10 10:19:34;;;;;;;;;;;;;;;25.90;47.12;101356.34;5065971;28;20298;-60
2023/09/10 10:22:04;;;;;;;;;;;;;;;25.91;47.25;101355.34;5075912;28;19928;-61
2023/09/10 10:24:33;;;;;;;;;;;;;;;25.91;47.33;101354.50;5075716;28;19930;-61
2023/09/10 10:27:04;;;;;;;;;;;;;;;25.92;47.32;101356.19;5076108;28;19932;-61
2023/09/10 10:29:32;;;;;;;;;;;;;;;25.92;47.42;101353.47;5076318;28;19948;-58
2023/09/10 10:32:10;;;;;;;;;;;;;;;25.91;47.36;101347.19;5075832;28;20404;-58
2023/09/10 10:34:41;;;;;;;;;;;;;;;25.92;47.32;101337.19;5074915;28;19928;-58
2023/09/10 10:37:15;;;;;;;;;;;;;;;25.92;47.36;101342.63;5075806;28;19935;-58
2023/09/10 10:40:08;;;;;;;;;;;;;;;25.93;47.35;101342.47;5075860;28;19924;-60
2023/09/10 10:42:39;;;;;;;;;;;;;;;25.92;47.34;101339.91;5075772;28;19925;-61
2023/09/10 10:45:07;;;;;;;;;;;;;;;25.92;47.48;101340.75;5065330;28;19931;-61
2023/09/10 10:47:40;;;;;;;;;;;;;;;25.93;47.31;101337.06;5075480;28;19924;-61
2023/09/10 10:50:10;;;;;;;;;;;;;;;25.93;47.26;101341.59;5075486;28;19925;-60
2023/09/10 10:52:48;;;;;;;;;;;;;;;25.93;47.20;101337.06;5075830;28;19924;-61
2023/09/10 10:55:15;;;;;;;;;;;;;;;25.93;47.30;101334.34;5075425;28;19928;-61
2023/09/10 10:57:43;;;;;;;;;;;;;;;25.92;47.27;101335.31;5075227;28;19924;-61
2023/09/10 11:00:11;;;;;;;;;;;;;;;25.93;47.31;101336.16;5074565;28;19925;-61
2023/09/10 11:02:38;;;;;;;;;;;;;;;25.94;47.25;101327.88;5057057;28;19925;-61
2023/09/10 11:05:06;;;;;;;;;;;;;;;25.94;47.38;101321.63;5099486;28;19924;-61
2023/09/10 11:07:34;;;;;;;;;;;;;;;25.94;47.34;101321.63;5075392;28;19932;-61
2023/09/10 11:10:22;;;;;;;;;;;;;;;25.94;47.28;101322.47;5074273;28;19954;-60
2023/09/10 11:13:07;;;;;;;;;;;;;;;25.94;47.31;101319.75;5065928;28;19925;-61
2023/09/10 11:15:34;;;;;;;;;;;;;;;25.94;47.43;101317.03;5075119;28;19948;-61
2023/09/10 11:18:20;;;;;;;;;;;;;;;25.94;47.44;101314.31;5071027;28;19925;-58
2023/09/10 11:20:49;;;;;;;;;;;;;;;25.94;47.35;101308.91;5066674;28;20413;-58
2023/09/10 11:23:16;;;;;;;;;;;;;;;25.94;47.21;101313.47;5074891;28;19924;-58
2023/09/10 11:25:45;;;;;;;;;;;;;;;25.94;47.32;101306.19;5074658;28;19928;-58
2023/09/10 11:28:30;;;;;;;;;;;;;;;25.95;47.34;101301.59;5075005;28;19928;-60
2023/09/10 11:30:58;;;;;;;;;;;;;;;25.94;47.37;101297.19;5075329;28;19931;-61
2023/09/10 11:33:29;;;;;;;;;;;;;;;25.95;47.29;101301.59;5074867;28;19924;-61
2023/09/10 11:36:00;;;;;;;;;;;;;;;25.94;47.38;101308.91;5074672;28;20299;-61
2023/09/10 11:38:28;;;;;;;;;;;;;;;25.94;47.39;101303.47;5074665;28;19924;-58
2023/09/10 11:40:55;;;;;;;;;;;;;;;25.95;47.43;101307.88;5074789;28;19931;-58
2023/09/10 11:43:23;;;;;;;;;;;;;;;25.95;47.29;101297.03;5074074;28;20375;-58
2023/09/10 11:45:51;;;;;;;;;;;;;;;25.95;47.33;101290.75;5074290;28;19924;-58
2023/09/10 11:48:18;;;;;;;;;;;;;;;25.95;47.42;101288.03;5074449;28;20673;-60
2023/09/10 11:50:46;;;;;;;;;;;;;;;25.95;47.42;101288.03;5074784;28;19931;-61
2023/09/10 11:53:13;;;;;;;;;;;;;;;25.95;47.36;101291.59;5074763;28;19929;-61
2023/09/10 11:55:41;;;;;;;;;;;;;;;25.95;47.41;101288.88;5072925;28;20295;-61
2023/09/10 11:58:08;;;;;;;;;;;;;;;25.96;47.42;101289.72;5074538;28;19932;-60
2023/09/10 12:00:36;;;;;;;;;;;;;;;25.96;47.45;101287.03;5074127;28;19925;-61
2023/09/10 12:03:03;;;;;;;;;;;;;;;25.96;47.49;101287.03;5061659;28;20034;-61
2023/09/10 12:05:30;;;;;;;;;;;;;;;25.96;47.39;101287.03;5061526;28;20347;-61
2023/09/10 12:08:01;;;;;;;;;;;;;;;25.96;47.49;101287.88;5074052;28;19931;-61
2023/09/10 12:10:29;;;;;;;;;;;;;;;25.96;47.39;101289.72;5073838;28;20408;-61
2023/09/10 12:13:03;;;;;;;;;;;;;;;25.96;47.41;101287.03;5073138;28;19925;-61
2023/09/10 12:15:31;;;;;;;;;;;;;;;25.97;47.38;101286.88;5073811;28;19924;-62
2023/09/10 12:18:01;;;;;;;;;;;;;;;25.96;47.40;101282.44;5073884;28;20432;-60
2023/09/10 12:20:28;;;;;;;;;;;;;;;25.97;47.42;101280.56;5074227;28;20026;-61
2023/09/10 12:22:55;;;;;;;;;;;;;;;25.97;47.50;101280.56;5073698;28;19924;-61
2023/09/10 12:25:22;;;;;;;;;;;;;;;25.96;47.45;101270.75;5073520;28;19935;-61
2023/09/10 12:27:50;;;;;;;;;;;;;;;25.97;47.40;101269.72;5074005;28;19932;-59
2023/09/10 12:30:18;;;;;;;;;;;;;;;25.97;47.45;101269.72;5073625;28;19925;-58
2023/09/10 12:32:45;;;;;;;;;;;;;;;25.97;47.50;101261.56;5068584;28;19924;-58
2023/09/10 12:35:12;;;;;;;;;;;;;;;25.97;47.53;101267.88;5073376;28;19929;-58
2023/09/10 12:38:05;;;;;;;;;;;;;;;25.97;47.41;101250.72;5073687;28;19948;-58
2023/09/10 12:40:33;;;;;;;;;;;;;;;25.97;47.41;101262.47;5072355;28;19936;-58
2023/09/10 12:43:00;;;;;;;;;;;;;;;25.97;47.40;101257.03;5073409;28;19932;-58